Time;durP1;ratioP1;P1;durP2;ratioP2;P2;SDS_P1;SDS_P2;PMS_P1;PMS_P2;Temp;Humidity;BMP_temperature;BMP_pressure;BME280_temperature;BME280_humidity;BME280_pressure;Samples;Min_cycle;Max_cycle;Signal;HPM_P1;HPM_P2
2022/03/08 00:00:29;;;;;;;11.53;8.15;;;3.70;86.40;;;;;;1872917;77;21027;-47
2022/03/08 00:03:00;;;;;;;18.02;11.05;;;3.60;86.50;;;;;;1872884;77;21105;-49
2022/03/08 00:05:30;;;;;;;19.95;9.65;;;3.60;86.30;;;;;;1872914;77;21102;-48
2022/03/08 00:08:00;;;;;;;18.15;10.50;;;3.60;87.40;;;;;;1872918;75;21034;-47
2022/03/08 00:10:30;;;;;;;20.23;10.82;;;3.60;86.60;;;;;;1872954;77;21032;-47
2022/03/08 00:12:59;;;;;;;18.50;10.50;;;3.60;86.60;;;;;;1872809;75;21104;-47
2022/03/08 00:15:29;;;;;;;17.45;9.40;;;3.60;86.70;;;;;;1872852;77;21093;-47
2022/03/08 00:17:58;;;;;;;11.53;7.30;;;3.60;86.60;;;;;;1872849;77;21027;-48
2022/03/08 00:20:28;;;;;;;17.20;9.78;;;3.70;87.10;;;;;;1873030;76;21027;-47
2022/03/08 00:22:58;;;;;;;16.80;9.88;;;3.70;86.60;;;;;;1872931;77;21105;-48
2022/03/08 00:25:27;;;;;;;18.87;9.90;;;3.70;86.70;;;;;;1872882;76;21027;-48
2022/03/08 00:27:57;;;;;;;16.23;9.63;;;3.70;86.80;;;;;;1872959;77;21007;-47
2022/03/08 00:30:27;;;;;;;18.32;10.05;;;3.90;87.10;;;;;;1872904;77;21027;-47
2022/03/08 00:32:57;;;;;;;14.35;9.73;;;3.90;86.70;;;;;;1872925;77;21086;-47
2022/03/08 00:35:27;;;;;;;15.43;9.08;;;3.90;87.00;;;;;;1872894;75;21089;-49
2022/03/08 00:37:59;;;;;;;13.83;7.95;;;3.90;86.30;;;;;;1872970;76;21067;-48
2022/03/08 00:40:28;;;;;;;15.83;9.43;;;3.80;86.40;;;;;;1872906;77;21035;-48
2022/03/08 00:42:57;;;;;;;16.87;9.23;;;3.80;86.50;;;;;;1872918;75;21093;-48
2022/03/08 00:45:27;;;;;;;15.25;9.63;;;3.70;86.50;;;;;;1872885;77;21023;-47
2022/03/08 00:47:56;;;;;;;20.37;9.83;;;3.70;87.30;;;;;;1872879;77;21096;-48
2022/03/08 00:50:28;;;;;;;13.65;8.63;;;3.60;86.80;;;;;;1873007;76;21046;-48
2022/03/08 00:52:59;;;;;;;15.38;8.80;;;3.70;86.90;;;;;;1872878;77;21465;-47
2022/03/08 00:55:30;;;;;;;16.85;9.65;;;3.60;87.10;;;;;;1872790;75;21039;-47
2022/03/08 00:58:00;;;;;;;16.27;9.53;;;3.60;86.50;;;;;;1872850;75;21046;-48
2022/03/08 01:00:30;;;;;;;18.50;9.38;;;3.50;86.70;;;;;;1872883;76;21109;-47
2022/03/08 01:03:00;;;;;;;14.78;8.80;;;3.50;87.20;;;;;;1872902;77;21085;-47
2022/03/08 01:05:30;;;;;;;18.42;11.20;;;3.60;87.00;;;;;;1872884;77;21031;-49
2022/03/08 01:08:00;;;;;;;15.13;9.83;;;3.60;87.70;;;;;;1872843;75;21035;-47
2022/03/08 01:10:30;;;;;;;17.85;9.68;;;3.70;87.50;;;;;;1872766;77;21003;-49
2022/03/08 01:13:01;;;;;;;16.20;9.08;;;3.70;86.90;;;;;;1872913;77;21011;-47
2022/03/08 01:15:33;;;;;;;15.75;9.18;;;3.70;86.90;;;;;;1872683;76;21075;-47
2022/03/08 01:18:03;;;;;;;14.28;8.25;;;3.70;87.60;;;;;;1872822;77;21043;-49
2022/03/08 01:20:33;;;;;;;16.57;9.55;;;3.70;86.60;;;;;;1872733;75;21093;-48
2022/03/08 01:23:02;;;;;;;15.83;9.35;;;3.60;86.80;;;;;;1872901;76;21085;-48
2022/03/08 01:25:31;;;;;;;18.62;10.00;;;3.60;86.80;;;;;;1872885;77;21035;-48
2022/03/08 01:28:01;;;;;;;16.23;9.55;;;3.60;87.30;;;;;;1872887;77;21047;-47
2022/03/08 01:30:31;;;;;;;14.03;8.38;;;3.50;86.80;;;;;;1872802;77;21007;-47
2022/03/08 01:33:00;;;;;;;16.42;8.75;;;3.50;86.90;;;;;;1872697;77;21152;-47
2022/03/08 01:35:30;;;;;;;12.10;8.05;;;3.50;86.90;;;;;;1872874;75;21043;-48
2022/03/08 01:37:59;;;;;;;14.25;8.03;;;3.50;87.10;;;;;;1872984;76;21019;-48
2022/03/08 01:40:28;;;;;;;16.02;8.43;;;3.40;87.00;;;;;;1873004;76;21096;-48
2022/03/08 01:42:58;;;;;;;12.40;7.35;;;3.40;87.40;;;;;;1872884;76;21027;-48
2022/03/08 01:45:27;;;;;;;10.05;6.47;;;3.40;87.20;;;;;;1872876;76;21003;-48
2022/03/08 01:47:57;;;;;;;14.47;7.97;;;3.50;87.70;;;;;;1872972;77;21086;-47
2022/03/08 01:50:26;;;;;;;14.40;7.92;;;3.50;87.20;;;;;;1872903;75;21031;-47
2022/03/08 01:52:56;;;;;;;14.80;8.93;;;3.50;87.40;;;;;;1872893;75;21078;-48
2022/03/08 01:55:25;;;;;;;11.93;8.28;;;3.50;87.20;;;;;;1872979;77;21047;-47
2022/03/08 01:57:54;;;;;;;13.20;6.78;;;3.50;87.70;;;;;;1872916;76;21116;-49
2022/03/08 02:00:29;;;;;;;15.40;8.25;;;3.50;87.40;;;;;;1872992;75;21050;-48
2022/03/08 02:03:00;;;;;;;14.30;8.30;;;3.40;87.60;;;;;;1872628;76;21120;-47
2022/03/08 02:05:30;;;;;;;15.32;8.48;;;3.50;87.90;;;;;;1872871;77;21030;-47
2022/03/08 02:07:59;;;;;;;12.60;7.65;;;3.50;87.80;;;;;;1872895;77;21035;-47
2022/03/08 02:10:28;;;;;;;13.05;7.50;;;3.50;88.10;;;;;;1872823;76;21038;-47
2022/03/08 02:12:58;;;;;;;13.75;7.92;;;3.60;88.00;;;;;;1872853;77;21097;-47
2022/03/08 02:15:29;;;;;;;11.50;7.75;;;3.60;87.50;;;;;;1872956;77;21031;-46
2022/03/08 02:18:01;;;;;;;14.95;8.38;;;3.50;87.30;;;;;;1872948;75;21092;-46
2022/03/08 02:20:31;;;;;;;13.10;8.63;;;3.40;87.20;;;;;;1872913;75;21035;-46
2022/03/08 02:23:00;;;;;;;12.58;7.28;;;3.40;87.70;;;;;;1873142;76;21080;-46
2022/03/08 02:25:30;;;;;;;13.58;8.05;;;3.40;88.10;;;;;;1872861;76;21027;-47
2022/03/08 02:27:59;;;;;;;16.73;9.33;;;3.50;87.80;;;;;;1872889;76;21085;-46
2022/03/08 02:30:28;;;;;;;16.02;7.97;;;3.50;88.40;;;;;;1872870;76;21007;-46
2022/03/08 02:32:58;;;;;;;15.90;9.23;;;3.50;87.90;;;;;;1872990;77;21031;-46
2022/03/08 02:35:30;;;;;;;16.17;9.80;;;3.60;88.00;;;;;;1872833;77;21035;-48
2022/03/08 02:38:02;;;;;;;21.52;10.32;;;3.60;87.50;;;;;;1872903;75;21054;-47
2022/03/08 02:40:34;;;;;;;18.35;10.35;;;3.60;87.70;;;;;;1872889;77;20999;-46
2022/03/08 02:43:05;;;;;;;19.60;11.05;;;3.60;87.80;;;;;;1872994;76;21062;-46
2022/03/08 02:45:35;;;;;;;24.23;12.98;;;3.60;87.50;;;;;;1873057;77;21039;-48
2022/03/08 02:48:05;;;;;;;19.98;10.98;;;3.60;87.90;;;;;;1872880;76;21144;-46
2022/03/08 02:50:34;;;;;;;20.10;11.90;;;3.60;87.70;;;;;;1873001;77;21031;-47
2022/03/08 02:53:05;;;;;;;23.73;12.55;;;3.60;88.00;;;;;;1872869;77;21026;-46
2022/03/08 02:55:36;;;;;;;20.65;11.80;;;3.70;87.90;;;;;;1873015;76;21027;-47
2022/03/08 02:58:06;;;;;;;21.85;11.63;;;3.70;88.00;;;;;;1872878;75;21063;-46
2022/03/08 03:00:36;;;;;;;25.68;12.88;;;3.70;87.70;;;;;;1872861;75;21160;-47
2022/03/08 03:03:07;;;;;;;25.00;13.65;;;3.70;87.70;;;;;;1872943;77;21132;-46
2022/03/08 03:05:37;;;;;;;23.60;12.30;;;3.70;87.70;;;;;;1872968;77;21582;-45
2022/03/08 03:08:07;;;;;;;20.62;11.63;;;3.70;87.60;;;;;;1872842;77;21089;-46
2022/03/08 03:10:37;;;;;;;23.15;13.15;;;3.60;87.50;;;;;;1872939;77;21007;-47
2022/03/08 03:13:06;;;;;;;21.12;11.03;;;3.60;87.70;;;;;;1872914;77;21117;-47
2022/03/08 03:15:35;;;;;;;18.10;10.35;;;3.60;88.30;;;;;;1872862;77;21136;-46
2022/03/08 03:18:08;;;;;;;20.65;10.63;;;3.50;87.40;;;;;;1872967;77;21682;-47
2022/03/08 03:20:37;;;;;;;18.92;11.22;;;3.40;87.30;;;;;;1872590;76;21058;-46
2022/03/08 03:23:07;;;;;;;16.73;9.68;;;3.30;87.60;;;;;;1872995;77;21031;-47
2022/03/08 03:25:36;;;;;;;12.98;7.70;;;3.20;87.80;;;;;;1872958;76;21077;-47
2022/03/08 03:28:05;;;;;;;15.28;7.90;;;3.20;88.00;;;;;;1872985;77;21130;-48
2022/03/08 03:30:35;;;;;;;19.00;10.60;;;3.10;88.40;;;;;;1872932;75;21113;-47
2022/03/08 03:33:04;;;;;;;20.48;11.57;;;3.10;88.40;;;;;;1872853;77;21156;-46
2022/03/08 03:35:34;;;;;;;18.80;10.95;;;3.10;88.40;;;;;;1872897;77;21027;-46
2022/03/08 03:38:04;;;;;;;16.02;10.53;;;3.10;89.00;;;;;;1872817;77;21035;-47
2022/03/08 03:40:33;;;;;;;18.02;10.63;;;3.10;88.30;;;;;;1872855;75;20999;-47
2022/03/08 03:43:02;;;;;;;20.72;11.30;;;3.10;88.30;;;;;;1872923;77;21021;-47
2022/03/08 03:45:32;;;;;;;15.32;10.08;;;3.20;88.70;;;;;;1872998;77;21031;-48
2022/03/08 03:48:01;;;;;;;23.22;11.40;;;3.20;88.50;;;;;;1872943;77;21007;-47
2022/03/08 03:50:30;;;;;;;22.93;13.62;;;3.10;88.20;;;;;;1872799;75;21097;-48
2022/03/08 03:52:59;;;;;;;15.35;9.73;;;3.20;88.40;;;;;;1872846;75;21027;-47
2022/03/08 03:55:28;;;;;;;18.42;9.88;;;3.20;88.30;;;;;;1872833;77;21097;-46
2022/03/08 03:57:58;;;;;;;20.25;10.90;;;3.00;87.50;;;;;;1872917;77;21121;-46
2022/03/08 04:00:28;;;;;;;22.42;12.10;;;2.90;87.60;;;;;;1890481;76;21058;-46
2022/03/08 04:02:57;;;;;;;19.77;10.93;;;2.80;88.10;;;;;;1891478;76;21097;-46
2022/03/08 04:05:27;;;;;;;20.88;10.78;;;2.80;88.80;;;;;;1891577;76;21026;-45
2022/03/08 04:07:57;;;;;;;21.50;13.25;;;2.80;88.70;;;;;;1891486;76;21092;-49
2022/03/08 04:10:27;;;;;;;14.43;9.15;;;2.90;88.70;;;;;;1891434;76;21144;-52
2022/03/08 04:12:57;;;;;;;23.07;12.55;;;2.90;88.50;;;;;;1891449;76;21057;-51
2022/03/08 04:15:26;;;;;;;20.95;11.95;;;2.90;88.40;;;;;;1891649;76;21089;-49
2022/03/08 04:17:55;;;;;;;15.20;9.70;;;2.90;88.50;;;;;;1891582;76;21105;-51
2022/03/08 04:20:25;;;;;;;18.75;11.70;;;2.80;88.20;;;;;;1891544;75;21121;-49
2022/03/08 04:22:55;;;;;;;21.75;12.25;;;2.80;88.30;;;;;;1891499;76;20998;-50
2022/03/08 04:25:25;;;;;;;18.62;9.60;;;2.80;88.30;;;;;;1891666;76;21022;-50
2022/03/08 04:27:54;;;;;;;19.40;10.78;;;2.80;88.50;;;;;;1891700;76;21104;-47
2022/03/08 04:30:24;;;;;;;20.05;12.07;;;2.90;88.60;;;;;;1891641;76;21030;-46
2022/03/08 04:32:53;;;;;;;17.10;10.55;;;2.80;88.30;;;;;;1891427;76;21034;-49
2022/03/08 04:35:22;;;;;;;25.88;12.58;;;2.80;88.40;;;;;;1891638;76;21457;-47
2022/03/08 04:37:51;;;;;;;23.07;11.55;;;2.80;88.60;;;;;;1891545;75;21084;-47
2022/03/08 04:40:21;;;;;;;18.92;10.72;;;2.90;88.60;;;;;;1891640;76;21097;-48
2022/03/08 04:42:50;;;;;;;20.00;12.03;;;2.90;88.70;;;;;;1891480;75;21054;-48
2022/03/08 04:45:19;;;;;;;19.52;11.70;;;2.90;88.90;;;;;;1891668;76;21506;-49
2022/03/08 04:47:49;;;;;;;22.30;13.10;;;2.90;88.90;;;;;;1891504;76;21034;-48
2022/03/08 04:50:18;;;;;;;21.80;13.18;;;3.00;88.50;;;;;;1891607;76;21092;-49
2022/03/08 04:52:49;;;;;;;18.98;10.20;;;3.00;88.60;;;;;;1891424;76;21034;-47
2022/03/08 04:55:20;;;;;;;20.08;11.48;;;3.00;87.90;;;;;;1891488;76;21084;-48
2022/03/08 04:57:51;;;;;;;20.12;11.10;;;2.90;87.90;;;;;;1891068;75;21132;-48
2022/03/08 05:00:20;;;;;;;19.12;10.38;;;2.90;88.20;;;;;;1891494;75;21050;-49
2022/03/08 05:02:49;;;;;;;24.47;12.80;;;2.80;88.40;;;;;;1891587;76;21046;-49
2022/03/08 05:05:19;;;;;;;20.75;11.40;;;2.90;88.50;;;;;;1891654;76;21035;-48
2022/03/08 05:07:48;;;;;;;24.10;13.30;;;2.90;88.60;;;;;;1891456;76;21089;-47
2022/03/08 05:10:18;;;;;;;21.52;12.55;;;3.00;88.90;;;;;;1891561;76;21030;-49
2022/03/08 05:12:47;;;;;;;21.87;12.13;;;3.00;88.90;;;;;;1891545;76;21062;-48
2022/03/08 05:15:17;;;;;;;19.25;11.90;;;3.10;88.60;;;;;;1891629;76;21539;-48
2022/03/08 05:17:46;;;;;;;20.57;12.15;;;3.00;87.40;;;;;;1891598;76;21003;-48
2022/03/08 05:20:15;;;;;;;34.35;16.60;;;2.90;88.00;;;;;;1891601;76;21084;-48
2022/03/08 05:22:45;;;;;;;20.57;11.90;;;2.90;88.60;;;;;;1891582;76;20998;-48
2022/03/08 05:25:14;;;;;;;19.32;10.15;;;2.90;88.80;;;;;;1891612;76;21453;-48
2022/03/08 05:27:43;;;;;;;20.70;12.10;;;3.00;88.70;;;;;;1891627;76;21089;-48
2022/03/08 05:30:13;;;;;;;26.50;16.20;;;3.00;88.40;;;;;;1891728;76;21027;-49
2022/03/08 05:32:42;;;;;;;21.40;11.40;;;3.00;88.40;;;;;;1891546;76;21084;-48
2022/03/08 05:35:11;;;;;;;26.45;14.63;;;3.10;88.60;;;;;;1891690;76;21128;-50
2022/03/08 05:37:41;;;;;;;30.25;16.93;;;3.10;88.60;;;;;;1891747;76;20990;-48
2022/03/08 05:40:10;;;;;;;25.32;13.28;;;3.20;88.80;;;;;;1891722;76;21022;-48
2022/03/08 05:42:39;;;;;;;24.57;13.13;;;3.30;88.80;;;;;;1891623;75;21022;-48
2022/03/08 05:45:10;;;;;;;21.33;12.58;;;3.40;88.70;;;;;;1891704;76;21050;-49
2022/03/08 05:47:41;;;;;;;24.40;12.82;;;3.50;88.70;;;;;;1891814;76;21123;-48
2022/03/08 05:50:12;;;;;;;23.65;12.70;;;3.60;88.70;;;;;;1891571;76;21026;-48
2022/03/08 05:52:41;;;;;;;21.05;11.80;;;3.60;88.50;;;;;;1891619;76;21026;-48
2022/03/08 05:55:12;;;;;;;21.35;12.68;;;3.70;88.30;;;;;;1891626;76;21092;-51
2022/03/08 05:57:41;;;;;;;25.17;13.25;;;3.70;88.60;;;;;;1891559;76;21103;-48
2022/03/08 06:00:14;;;;;;;25.45;13.58;;;3.80;88.20;;;;;;1891623;76;21030;-48
2022/03/08 06:02:44;;;;;;;23.30;13.05;;;3.80;88.40;;;;;;1891690;76;21089;-50
2022/03/08 06:05:13;;;;;;;18.15;11.15;;;3.80;88.00;;;;;;1891551;76;21029;-49
2022/03/08 06:07:42;;;;;;;17.90;11.03;;;3.90;88.20;;;;;;1891520;76;21007;-48
2022/03/08 06:10:12;;;;;;;23.75;11.85;;;3.90;87.80;;;;;;1891598;76;21023;-48
2022/03/08 06:12:41;;;;;;;20.20;11.25;;;3.80;87.70;;;;;;1891592;76;21104;-49
2022/03/08 06:15:11;;;;;;;20.32;11.48;;;3.80;86.80;;;;;;1891594;76;21023;-48
2022/03/08 06:17:40;;;;;;;21.02;11.48;;;3.70;86.60;;;;;;1891589;76;21030;-49
2022/03/08 06:20:10;;;;;;;21.75;12.45;;;3.70;87.50;;;;;;1891557;76;21050;-48
2022/03/08 06:22:39;;;;;;;19.40;11.80;;;3.70;87.80;;;;;;1891573;76;21006;-48
2022/03/08 06:25:10;;;;;;;20.88;11.65;;;3.80;87.90;;;;;;1891679;75;21022;-48
2022/03/08 06:27:40;;;;;;;20.40;11.68;;;3.80;88.00;;;;;;1891575;76;21096;-48
2022/03/08 06:30:11;;;;;;;17.37;11.45;;;3.80;87.80;;;;;;1891454;75;21100;-49
2022/03/08 06:32:40;;;;;;;21.60;11.73;;;3.80;86.60;;;;;;1891646;76;21084;-50
2022/03/08 06:35:10;;;;;;;19.45;11.50;;;3.70;87.00;;;;;;1891579;76;21027;-51
2022/03/08 06:37:40;;;;;;;18.20;10.23;;;3.70;87.20;;;;;;1891646;76;21089;-49
2022/03/08 06:40:10;;;;;;;15.58;10.35;;;3.70;86.90;;;;;;1891560;76;21092;-47
2022/03/08 06:42:39;;;;;;;13.35;8.90;;;3.70;87.70;;;;;;1891573;76;21163;-49
2022/03/08 06:45:09;;;;;;;12.15;6.70;;;3.70;86.30;;;;;;1891565;75;21100;-49
2022/03/08 06:47:39;;;;;;;13.05;8.03;;;3.60;85.30;;;;;;1891668;76;21514;-48
2022/03/08 06:50:09;;;;;;;15.38;9.60;;;3.50;86.50;;;;;;1891561;76;21007;-49
2022/03/08 06:52:38;;;;;;;15.15;9.73;;;3.60;87.20;;;;;;1891618;76;21030;-49
2022/03/08 06:55:09;;;;;;;10.55;7.80;;;3.60;87.40;;;;;;1891541;76;21088;-48
2022/03/08 06:57:38;;;;;;;12.45;8.55;;;3.70;87.40;;;;;;1891632;76;21026;-47
2022/03/08 07:00:09;;;;;;;13.60;8.00;;;3.80;86.90;;;;;;1891591;76;21057;-47
2022/03/08 07:02:39;;;;;;;14.15;7.70;;;3.80;87.20;;;;;;1891683;76;21092;-48
2022/03/08 07:05:09;;;;;;;14.33;8.55;;;3.80;87.60;;;;;;1891595;76;21112;-47
2022/03/08 07:07:38;;;;;;;14.43;8.00;;;3.90;88.40;;;;;;1891534;76;21092;-47
2022/03/08 07:10:08;;;;;;;11.53;7.95;;;4.00;87.90;;;;;;1891534;75;21026;-48
2022/03/08 07:12:37;;;;;;;12.18;8.23;;;4.10;88.00;;;;;;1891582;76;21026;-51
2022/03/08 07:15:07;;;;;;;12.25;8.15;;;4.20;87.90;;;;;;1891552;76;21026;-49
2022/03/08 07:17:36;;;;;;;11.65;7.72;;;4.30;88.20;;;;;;1891570;76;21066;-46
2022/03/08 07:20:07;;;;;;;10.43;7.10;;;4.40;88.00;;;;;;1891657;76;21088;-50
2022/03/08 07:22:37;;;;;;;14.40;6.80;;;4.50;87.60;;;;;;1891626;76;21542;-50
2022/03/08 07:25:07;;;;;;;10.43;7.70;;;4.50;87.20;;;;;;1891432;75;21081;-47
2022/03/08 07:27:37;;;;;;;11.00;7.05;;;4.50;87.30;;;;;;1891310;76;21027;-46
2022/03/08 07:30:08;;;;;;;11.80;8.40;;;4.50;87.40;;;;;;1891241;75;21046;-48
2022/03/08 07:32:38;;;;;;;11.08;7.67;;;4.60;87.30;;;;;;1891247;76;21100;-47
2022/03/08 07:35:08;;;;;;;11.65;7.45;;;4.60;87.10;;;;;;1891268;76;21094;-47
2022/03/08 07:37:38;;;;;;;10.10;6.92;;;4.60;86.80;;;;;;1891460;76;21069;-48
2022/03/08 07:40:09;;;;;;;8.75;5.12;;;4.50;86.90;;;;;;1891566;76;21124;-47
2022/03/08 07:42:38;;;;;;;8.75;6.22;;;4.50;86.10;;;;;;1891564;76;21010;-49
2022/03/08 07:45:08;;;;;;;9.85;6.33;;;4.40;86.20;;;;;;1891542;76;21078;-47
2022/03/08 07:47:37;;;;;;;9.78;6.37;;;4.30;87.00;;;;;;1891533;76;21070;-47
2022/03/08 07:50:08;;;;;;;10.03;6.67;;;4.30;87.20;;;;;;1891487;76;21076;-47
2022/03/08 07:52:38;;;;;;;9.55;7.03;;;4.30;87.50;;;;;;1891506;75;21400;-47
2022/03/08 07:55:08;;;;;;;9.70;7.12;;;4.30;87.40;;;;;;1891532;76;21097;-46
2022/03/08 07:57:38;;;;;;;10.08;7.62;;;4.30;87.30;;;;;;1891598;76;21121;-47
2022/03/08 08:00:08;;;;;;;11.43;7.50;;;4.20;87.50;;;;;;1891528;76;21144;-46
2022/03/08 08:02:37;;;;;;;12.03;7.75;;;4.20;87.70;;;;;;1875676;75;21074;-49
2022/03/08 08:05:06;;;;;;;13.68;8.13;;;4.30;87.70;;;;;;1872848;77;21040;-50
2022/03/08 08:07:36;;;;;;;10.75;6.78;;;4.30;87.40;;;;;;1872808;77;21458;-49
2022/03/08 08:10:06;;;;;;;10.20;7.60;;;4.30;87.10;;;;;;1872851;77;21117;-49
2022/03/08 08:12:36;;;;;;;15.23;9.58;;;4.30;87.20;;;;;;1872718;75;21023;-47
2022/03/08 08:15:06;;;;;;;17.02;9.43;;;4.30;87.20;;;;;;1872786;75;21077;-48
2022/03/08 08:17:36;;;;;;;16.07;10.08;;;4.20;87.40;;;;;;1872849;75;21027;-50
2022/03/08 08:20:06;;;;;;;14.70;9.50;;;4.20;87.10;;;;;;1872945;77;21031;-47
2022/03/08 08:22:35;;;;;;;16.12;9.63;;;4.20;86.60;;;;;;1872772;76;21027;-48
2022/03/08 08:25:06;;;;;;;13.13;8.40;;;4.10;86.10;;;;;;1872859;77;21003;-48
2022/03/08 08:27:37;;;;;;;11.63;7.78;;;4.10;85.30;;;;;;1872766;77;21027;-49
2022/03/08 08:30:11;;;;;;;18.62;8.58;;;4.00;84.60;;;;;;1872785;75;21027;-47
2022/03/08 08:32:41;;;;;;;10.23;6.55;;;3.80;85.40;;;;;;1872677;76;21085;-47
2022/03/08 08:35:11;;;;;;;12.58;8.30;;;3.70;85.60;;;;;;1872808;77;21035;-47
2022/03/08 08:37:40;;;;;;;17.32;9.30;;;3.70;85.60;;;;;;1872825;77;21092;-48
2022/03/08 08:40:11;;;;;;;13.15;8.53;;;3.60;85.40;;;;;;1872751;77;21035;-47
2022/03/08 08:42:40;;;;;;;12.18;7.70;;;3.50;85.80;;;;;;1872999;77;21089;-47
2022/03/08 08:45:11;;;;;;;11.10;7.60;;;3.40;85.70;;;;;;1872868;76;21093;-47
2022/03/08 08:47:41;;;;;;;7.67;5.92;;;3.40;85.80;;;;;;1872982;76;21082;-47
2022/03/08 08:50:11;;;;;;;8.48;6.03;;;3.30;85.90;;;;;;1873085;76;21055;-48
2022/03/08 08:52:41;;;;;;;9.08;7.42;;;3.30;86.20;;;;;;1872775;77;21101;-48
2022/03/08 08:55:11;;;;;;;11.50;7.08;;;3.20;86.20;;;;;;1872965;76;21007;-46
2022/03/08 08:57:40;;;;;;;13.88;9.45;;;3.20;86.40;;;;;;1872842;75;21098;-47
2022/03/08 09:00:11;;;;;;;14.83;8.53;;;3.20;86.90;;;;;;1872932;77;21021;-48
2022/03/08 09:02:44;;;;;;;13.10;8.35;;;3.10;86.70;;;;;;1884409;75;21127;-47
2022/03/08 09:05:14;;;;;;;7.72;5.60;;;3.20;87.10;;;;;;1891621;76;21046;-50
2022/03/08 09:07:43;;;;;;;8.43;5.65;;;3.20;86.30;;;;;;1891710;75;21511;-48
2022/03/08 09:10:14;;;;;;;12.15;7.47;;;3.20;86.70;;;;;;1891730;76;21022;-48
2022/03/08 09:12:44;;;;;;;5.15;3.92;;;3.20;86.50;;;;;;1891788;76;21026;-51
2022/03/08 09:15:13;;;;;;;6.55;3.87;;;3.20;85.80;;;;;;1891689;76;21088;-48
2022/03/08 09:17:42;;;;;;;11.18;7.95;;;3.20;85.40;;;;;;1891587;76;21092;-48
2022/03/08 09:20:13;;;;;;;10.10;7.58;;;3.20;86.00;;;;;;1891621;76;21006;-47
2022/03/08 09:22:42;;;;;;;10.50;8.08;;;3.20;86.20;;;;;;1891818;76;21097;-47
2022/03/08 09:25:12;;;;;;;10.28;7.28;;;3.20;86.30;;;;;;1891651;76;21030;-47
2022/03/08 09:27:41;;;;;;;18.67;9.28;;;3.20;85.60;;;;;;1891630;76;21092;-47
2022/03/08 09:30:11;;;;;;;12.20;7.42;;;3.30;86.40;;;;;;1891554;75;21018;-47
2022/03/08 09:32:41;;;;;;;12.43;8.43;;;3.50;86.60;;;;;;1891588;76;21100;-47
2022/03/08 09:35:10;;;;;;;19.07;10.90;;;3.60;86.50;;;;;;1891697;76;21058;-48
2022/03/08 09:37:39;;;;;;;14.95;9.10;;;3.70;86.50;;;;;;1891637;75;21022;-47
2022/03/08 09:40:10;;;;;;;8.15;6.25;;;3.90;85.10;;;;;;1891799;76;21441;-48
2022/03/08 09:42:39;;;;;;;9.68;6.83;;;4.00;84.70;;;;;;1891582;76;21029;-47
2022/03/08 09:45:10;;;;;;;11.22;6.95;;;4.10;83.60;;;;;;1891649;75;21039;-48
2022/03/08 09:47:39;;;;;;;10.40;5.50;;;4.10;81.80;;;;;;1891605;76;21034;-48
2022/03/08 09:50:11;;;;;;;7.10;5.90;;;4.20;83.80;;;;;;1891599;76;21026;-47
2022/03/08 09:52:41;;;;;;;9.20;5.33;;;4.20;82.20;;;;;;1891551;76;21022;-48
2022/03/08 09:55:16;;;;;;;7.80;6.05;;;4.20;81.90;;;;;;1891570;76;21096;-48
2022/03/08 09:57:46;;;;;;;9.38;7.67;;;4.20;82.30;;;;;;1891844;76;21039;-48
2022/03/08 10:00:16;;;;;;;10.05;6.08;;;4.30;83.10;;;;;;1891692;76;20999;-46
2022/03/08 10:02:51;;;;;;;10.03;6.42;;;4.30;80.90;;;;;;1891451;76;21112;-48
2022/03/08 10:05:23;;;;;;;;;;;4.40;81.10;;;;;;1894466;76;21414;-47
2022/03/08 10:08:19;;;;;;;9.70;6.70;;;4.40;78.20;;;;;;1891495;76;20216;-47
2022/03/08 10:10:59;;;;;;;5.28;4.72;;;4.50;80.60;;;;;;1891548;75;21473;-49
2022/03/08 10:13:27;;;;;;;8.43;4.90;;;4.50;80.40;;;;;;1891243;75;21022;-47
2022/03/08 10:16:24;;;;;;;7.95;6.62;;;4.50;79.20;;;;;;1891204;75;21410;-50
2022/03/08 10:18:58;;;;;;;17.80;7.65;;;4.50;79.30;;;;;;1891634;76;21026;-47
2022/03/08 10:21:35;;;;;;;13.93;7.77;;;4.60;80.50;;;;;;1891910;76;21131;-46
2022/03/08 10:24:10;;;;;;;13.22;8.88;;;4.60;81.40;;;;;;1891673;76;22185;-49
2022/03/08 10:26:51;;;;;;;10.65;7.25;;;4.70;81.50;;;;;;1891663;76;21112;-47
2022/03/08 10:29:35;;;;;;;11.15;7.03;;;4.80;81.80;;;;;;1891667;75;21003;-47
2022/03/08 10:32:21;;;;;;;10.28;7.62;;;4.80;80.00;;;;;;1891549;76;21026;-46
2022/03/08 10:34:52;;;;;;;10.18;7.80;;;4.80;81.50;;;;;;1890138;75;21023;-47
2022/03/08 10:37:24;;;;;;;8.93;7.10;;;4.90;82.20;;;;;;1891874;76;20998;-47
2022/03/08 10:39:58;;;;;;;11.68;7.95;;;5.00;81.80;;;;;;1891767;75;21058;-47
2022/03/08 10:42:33;;;;;;;9.93;7.03;;;5.00;81.70;;;;;;1891824;76;21183;-46
2022/03/08 10:45:05;;;;;;;9.55;7.67;;;5.10;82.00;;;;;;1891710;76;21022;-48
2022/03/08 10:47:42;;;;;;;10.48;7.55;;;5.20;81.00;;;;;;1891558;75;21441;-47
2022/03/08 10:50:13;;;;;;;7.65;6.15;;;5.30;82.40;;;;;;1891709;76;21003;-46
2022/03/08 10:52:45;;;;;;;8.65;6.42;;;5.40;82.00;;;;;;1891517;75;21021;-48
2022/03/08 10:55:16;;;;;;;10.78;6.55;;;5.50;80.80;;;;;;1891681;76;21092;-47
2022/03/08 10:57:50;;;;;;;8.95;6.40;;;5.50;78.90;;;;;;1891650;76;21194;-47
2022/03/08 11:00:22;;;;;;;9.95;5.87;;;5.50;79.70;;;;;;1891923;76;21034;-47
2022/03/08 11:02:55;;;;;;;12.30;7.85;;;5.50;76.20;;;;;;1891758;76;21038;-47
2022/03/08 11:05:26;;;;;;;4.67;3.95;;;5.40;78.30;;;;;;1891753;76;21495;-47
2022/03/08 11:07:57;;;;;;;19.07;12.50;;;5.40;76.10;;;;;;1891699;76;21088;-47
2022/03/08 11:10:27;;;;;;;6.55;5.12;;;5.40;79.10;;;;;;1891592;76;21050;-46
2022/03/08 11:12:58;;;;;;;9.70;6.50;;;5.40;74.70;;;;;;1891492;75;21084;-47
2022/03/08 11:15:28;;;;;;;11.80;8.30;;;5.30;77.20;;;;;;1891655;76;21006;-46
2022/03/08 11:17:58;;;;;;;10.60;8.33;;;5.30;78.30;;;;;;1891543;75;21030;-47
2022/03/08 11:20:29;;;;;;;10.38;7.47;;;5.20;78.00;;;;;;1891548;75;21030;-47
2022/03/08 11:23:00;;;;;;;15.38;8.65;;;5.20;76.50;;;;;;1891568;76;21046;-47
2022/03/08 11:25:35;;;;;;;11.80;8.88;;;5.20;78.40;;;;;;1891527;76;21096;-46
2022/03/08 11:28:05;;;;;;;12.75;9.65;;;5.10;78.30;;;;;;1891493;76;21092;-47
2022/03/08 11:30:50;;;;;;;10.90;8.93;;;5.10;79.70;;;;;;1891463;76;21026;-45
2022/03/08 11:33:39;;;;;;;10.88;7.95;;;5.20;79.20;;;;;;1891538;76;21125;-47
2022/03/08 11:36:17;;;;;;;13.28;8.15;;;5.40;80.00;;;;;;1891583;76;21065;-46
2022/03/08 11:39:06;;;;;;;7.70;6.50;;;5.50;78.90;;;;;;1891492;75;21116;-46
2022/03/08 11:41:36;;;;;;;8.10;6.03;;;5.60;75.40;;;;;;1891536;76;21127;-46
2022/03/08 11:44:06;;;;;;;8.78;6.65;;;5.60;74.50;;;;;;1891744;76;21084;-46
2022/03/08 11:46:35;;;;;;;8.80;5.90;;;5.60;76.90;;;;;;1891503;76;21110;-47
2022/03/08 11:49:05;;;;;;;13.88;6.70;;;5.60;77.10;;;;;;1891514;76;21088;-46
2022/03/08 11:51:34;;;;;;;6.70;6.00;;;5.60;75.90;;;;;;1891585;76;21038;-46
2022/03/08 11:54:09;;;;;;;8.25;5.42;;;5.60;73.70;;;;;;1891458;76;21038;-45
2022/03/08 11:56:51;;;;;;;8.00;6.00;;;5.60;74.70;;;;;;1891679;76;21519;-47
2022/03/08 11:59:21;;;;;;;10.43;6.28;;;5.50;72.30;;;;;;1891583;76;21566;-46
2022/03/08 12:01:51;;;;;;;8.45;5.55;;;5.40;74.50;;;;;;1891595;76;21117;-47
2022/03/08 12:04:22;;;;;;;9.78;5.08;;;5.40;72.70;;;;;;1881733;75;21059;-47
2022/03/08 12:06:58;;;;;;;5.72;4.00;;;5.40;73.00;;;;;;1872794;76;21527;-46
2022/03/08 12:09:28;;;;;;;5.67;3.62;;;5.30;68.80;;;;;;1872900;76;20995;-46
2022/03/08 12:12:01;;;;;;;6.30;4.78;;;5.20;66.60;;;;;;1872735;77;21027;-47
2022/03/08 12:14:41;;;;;;;2.85;2.60;;;5.20;69.00;;;;;;1872750;77;21055;-47
2022/03/08 12:17:12;;;;;;;9.03;6.47;;;5.10;68.20;;;;;;1869591;76;21077;-47
2022/03/08 12:19:47;;;;;;;8.80;5.85;;;5.10;72.00;;;;;;1872793;76;21101;-47
2022/03/08 12:22:18;;;;;;;8.05;5.85;;;5.10;73.60;;;;;;1873021;76;21082;-46
2022/03/08 12:24:55;;;;;;;6.85;5.47;;;5.00;73.80;;;;;;1872717;76;21030;-46
2022/03/08 12:27:26;;;;;;;10.20;6.60;;;5.10;70.80;;;;;;1872982;77;21042;-46
2022/03/08 12:30:05;;;;;;;8.45;5.60;;;5.10;71.70;;;;;;1872921;76;21466;-46
2022/03/08 12:32:43;;;;;;;5.97;4.03;;;5.10;71.90;;;;;;1872167;76;21106;-47
2022/03/08 12:35:17;;;;;;;12.98;6.85;;;5.10;70.10;;;;;;1872881;77;21089;-47
2022/03/08 12:37:53;;;;;;;7.80;5.45;;;5.00;71.00;;;;;;1872831;75;21073;-47
2022/03/08 12:40:25;;;;;;;8.68;5.35;;;5.00;70.70;;;;;;1872737;77;21018;-48
2022/03/08 12:43:03;;;;;;;18.62;9.88;;;4.90;70.70;;;;;;1872843;77;21411;-46
2022/03/08 12:45:34;;;;;;;7.92;5.42;;;4.90;70.80;;;;;;1872797;77;21100;-47
2022/03/08 12:48:12;;;;;;;12.05;7.47;;;4.90;70.30;;;;;;1872746;77;21027;-47
2022/03/08 12:50:56;;;;;;;5.72;4.40;;;4.90;71.70;;;;;;1871814;76;21576;-47
2022/03/08 12:53:31;;;;;;;5.00;3.98;;;4.90;70.70;;;;;;1872904;77;21019;-48
2022/03/08 12:56:01;;;;;;;;;;;4.90;70.60;;;;;;1875564;77;21035;-47
2022/03/08 12:58:32;;;;;;;6.33;4.90;;;4.90;69.40;;;;;;1871606;76;20119;-46
2022/03/08 13:01:04;;;;;;;7.30;5.15;;;4.80;71.10;;;;;;1872813;77;20999;-46
2022/03/08 13:03:36;;;;;;;6.12;4.45;;;4.80;71.60;;;;;;1872926;77;21093;-47